Time;durP1;ratioP1;P1;durP2;ratioP2;P2;SDS_P1;SDS_P2;PMS_P1;PMS_P2;Temp;Humidity;BMP_temperature;BMP_pressure;BME280_temperature;BME280_humidity;BME280_pressure;Samples;Min_cycle;Max_cycle;Signal;HPM_P1;HPM_P2
2023/10/19 00:00:44;;;;;;;28.90;10.40;;;;;;;5.81;66.89;99353.23;78252;1300;3052112;-66
2023/10/19 00:03:11;;;;;;;19.60;8.20;;;;;;;5.81;66.81;99350.79;79407;1295;3013054;-64
2023/10/19 00:05:45;;;;;;;16.40;7.90;;;;;;;5.84;66.77;99350.13;78976;1294;3011469;-67
2023/10/19 00:08:16;;;;;;;21.90;8.70;;;;;;;5.85;66.80;99349.41;79437;1295;3011483;-63
2023/10/19 00:13:00;;;;;;;59.00;17.90;;;;;;;5.95;66.75;99342.39;80051;1299;3013040;-67
2023/10/19 00:15:31;;;;;;;81.30;27.00;;;;;;;5.94;66.57;99342.76;79144;1299;3011576;-66
2023/10/19 00:18:07;;;;;;;99.40;32.00;;;;;;;5.90;66.73;99335.13;78101;1304;3050552;-63
2023/10/19 00:23:09;;;;;;;96.30;33.10;;;;;;;5.89;67.42;99336.23;79208;1303;3013250;-70
2023/10/19 00:25:41;;;;;;;51.60;19.60;;;;;;;5.98;66.97;99332.71;76241;1304;3096863;-65
2023/10/19 00:28:08;;;;;;;34.90;14.20;;;;;;;5.96;67.01;99336.11;79629;1300;3011451;-63
2023/10/19 00:30:37;;;;;;;22.30;10.40;;;;;;;5.87;67.29;99335.77;78807;1296;3013201;-67
2023/10/19 00:33:04;;;;;;;17.60;7.80;;;;;;;5.95;67.22;99329.36;79410;1299;3013021;-69
2023/10/19 00:35:41;;;;;;;13.50;7.10;;;;;;;5.94;67.55;99333.38;79384;1299;3011608;-66
2023/10/19 00:38:21;;;;;;;24.40;9.90;;;;;;;5.98;67.38;99325.92;78226;1298;3053202;-66
2023/10/19 00:40:53;;;;;;;16.90;7.30;;;;;;;5.95;67.52;99332.64;78178;1301;3051724;-70
2023/10/19 00:43:32;;;;;;;16.40;6.70;;;;;;;5.93;67.56;99329.63;79516;1296;3011570;-68
2023/10/19 00:46:08;;;;;;;15.50;7.10;;;;;;;5.90;67.65;99329.56;78155;1296;3052102;-67
2023/10/19 00:48:36;;;;;;;16.10;7.10;;;;;;;5.82;68.04;99329.03;78175;1295;3055169;-64
2023/10/19 00:51:26;;;;;;;21.60;8.70;;;;;;;5.87;67.95;99327.78;79481;1296;3012448;-65
2023/10/19 00:53:55;;;;;;;18.70;7.40;;;;;;;5.85;68.13;99325.79;78111;1300;3049415;-65
2023/10/19 00:56:23;;;;;;;37.00;12.10;;;;;;;5.81;68.13;99321.95;79429;1301;3011758;-67
2023/10/19 00:58:53;;;;;;;81.00;21.90;;;;;;;5.78;68.37;99325.93;79473;1296;3011314;-64
2023/10/19 01:01:24;;;;;;;90.50;22.60;;;;;;;5.77;68.51;99325.77;78313;1301;3050545;-64
2023/10/19 01:03:56;;;;;;;78.80;22.00;;;;;;;5.74;68.64;99329.93;79554;1296;3011861;-70
2023/10/19 01:06:25;;;;;;;48.30;14.40;;;;;;;5.68;68.72;99321.30;78280;1297;3049463;-66
2023/10/19 01:08:53;;;;;;;70.90;20.90;;;;;;;5.68;68.68;99324.41;79574;1296;3012199;-66
2023/10/19 01:11:20;;;;;;;65.10;17.90;;;;;;;5.76;68.18;99323.22;79352;1296;3011753;-67
2023/10/19 01:13:50;;;;;;;84.10;23.90;;;;;;;5.74;68.28;99322.25;78314;1299;3051925;-64
2023/10/19 01:16:20;;;;;;;87.60;24.00;;;;;;;5.81;67.89;99322.48;79347;1298;3013761;-69
2023/10/19 01:18:54;;;;;;;82.30;22.40;;;;;;;5.83;67.64;99327.25;78523;1300;3050884;-66
2023/10/19 01:21:44;;;;;;;36.30;12.30;;;;;;;5.80;67.92;99328.41;79366;1300;3011628;-68
2023/10/19 01:24:16;;;;;;;20.60;9.00;;;;;;;5.78;68.04;99325.38;78150;1301;3049716;-65
2023/10/19 01:26:43;;;;;;;10.30;5.20;;;;;;;5.77;68.14;99326.13;79283;1298;3011619;-68
2023/10/19 01:29:16;;;;;;;11.90;5.70;;;;;;;5.82;67.99;99327.11;77987;1298;3026857;-65
2023/10/19 01:31:56;;;;;;;7.50;5.00;;;;;;;5.79;68.21;99328.98;79284;1296;3011684;-67
2023/10/19 01:34:26;;;;;;;8.50;5.30;;;;;;;5.82;68.24;99331.64;78137;1298;3051066;-70
2023/10/19 01:36:55;;;;;;;10.20;5.60;;;;;;;5.89;68.09;99332.73;79385;1296;3013308;-68
2023/10/19 01:39:25;;;;;;;13.80;5.30;;;;;;;5.92;67.76;99332.08;78126;1295;3049406;-65
2023/10/19 01:41:52;;;;;;;11.30;5.10;;;;;;;5.89;67.86;99333.81;79384;1296;3013712;-71
2023/10/19 01:44:20;;;;;;;9.90;5.00;;;;;;;5.84;67.77;99331.36;79339;1296;3011629;-72
2023/10/19 01:46:48;;;;;;;10.50;5.40;;;;;;;5.86;67.79;99330.58;78212;1300;3050457;-67
2023/10/19 01:49:25;;;;;;;11.20;5.40;;;;;;;5.87;67.93;99330.38;79392;1301;3013510;-68
2023/10/19 01:51:54;;;;;;;9.90;4.60;;;;;;;5.91;67.86;99331.42;78216;1295;3069554;-66
2023/10/19 01:54:23;;;;;;;8.80;5.30;;;;;;;5.84;67.97;99330.65;79363;1296;3013508;-64
2023/10/19 01:56:54;;;;;;;8.80;5.00;;;;;;;5.83;68.12;99326.72;78763;1295;3013459;-71
2023/10/19 01:59:22;;;;;;;11.60;5.10;;;;;;;5.86;67.94;99331.48;79357;1296;3013470;-64
2023/10/19 02:01:51;;;;;;;10.00;5.40;;;;;;;5.92;67.73;99330.85;78849;1298;3011935;-66
2023/10/19 02:04:21;;;;;;;12.50;6.10;;;;;;;5.93;67.76;99332.91;79543;1298;3011398;-66
2023/10/19 02:06:52;;;;;;;8.40;4.70;;;;;;;6.03;67.32;99334.58;78212;1301;3052797;-68
2023/10/19 02:09:21;;;;;;;12.00;5.40;;;;;;;6.10;67.10;99329.77;79565;1296;3011820;-69
2023/10/19 02:11:52;;;;;;;11.10;5.20;;;;;;;6.07;67.57;99326.59;78174;1295;3049121;-69
2023/10/19 02:14:19;;;;;;;9.80;5.00;;;;;;;6.06;67.56;99331.86;79244;1301;3011487;-67
2023/10/19 02:16:53;;;;;;;10.80;5.20;;;;;;;6.06;67.63;99328.70;78826;1295;3011794;-69
2023/10/19 02:19:20;;;;;;;10.60;5.10;;;;;;;6.04;67.97;99337.16;79354;1295;3011689;-64
2023/10/19 02:21:53;;;;;;;10.60;5.50;;;;;;;6.03;67.95;99335.29;78030;1301;3049548;-68
2023/10/19 02:24:20;;;;;;;12.00;5.30;;;;;;;6.11;68.01;99328.50;79404;1301;3011704;-69
2023/10/19 02:26:51;;;;;;;11.40;5.90;;;;;;;6.09;68.11;99331.37;78259;1298;3051577;-68
2023/10/19 02:29:18;;;;;;;9.50;5.40;;;;;;;6.04;68.55;99335.59;79554;1297;3011680;-64
2023/10/19 02:31:48;;;;;;;10.00;4.60;;;;;;;6.06;68.81;99332.18;78097;1298;3027121;-68
2023/10/19 02:34:17;;;;;;;14.60;6.20;;;;;;;6.04;69.25;99328.47;79433;1295;3013479;-67
2023/10/19 02:36:45;;;;;;;9.90;5.70;;;;;;;6.13;69.16;99334.16;78138;1296;3054969;-67
2023/10/19 02:39:13;;;;;;;10.50;5.30;;;;;;;6.04;69.78;99329.00;79361;1300;3013638;-70
2023/10/19 02:41:44;;;;;;;13.20;5.40;;;;;;;6.02;69.81;99327.85;79457;1298;3013250;-66
2023/10/19 02:46:44;;;;;;;9.10;5.80;;;;;;;5.91;71.14;99328.48;79412;1296;3011605;-68
2023/10/19 02:49:22;;;;;;;10.10;4.90;;;;;;;5.92;71.21;99333.13;78331;1301;3056255;-69
2023/10/19 02:51:50;;;;;;;8.80;5.00;;;;;;;5.92;71.40;99332.27;78005;1295;3049469;-66
2023/10/19 02:54:22;;;;;;;9.00;5.80;;;;;;;5.83;72.01;99325.88;79381;1296;3013234;-67
2023/10/19 02:56:52;;;;;;;7.50;3.70;;;;;;;5.84;72.31;99330.51;78041;1298;3051537;-67
2023/10/19 02:59:24;;;;;;;12.70;5.10;;;;;;;6.75;71.17;99322.61;79564;1298;3011599;-68
2023/10/19 03:02:00;;;;;;;8.60;5.20;;;;;;;7.07;69.47;99327.73;78221;1296;3069287;-66
2023/10/19 03:04:29;;;;;;;8.70;5.00;;;;;;;6.84;69.97;99324.30;77958;1301;3052782;-67
2023/10/19 03:06:56;;;;;;;9.20;5.00;;;;;;;6.67;70.54;99324.77;79250;1299;3013111;-69
2023/10/19 03:09:28;;;;;;;9.70;5.30;;;;;;;6.62;70.54;99320.98;79206;1299;3012027;-67
2023/10/19 03:11:59;;;;;;;9.00;5.40;;;;;;;6.37;71.68;99319.33;77985;1301;3049261;-66
2023/10/19 03:14:27;;;;;;;10.20;5.80;;;;;;;6.26;72.38;99319.48;79433;1301;3011708;-65
2023/10/19 03:16:57;;;;;;;10.30;5.20;;;;;;;6.09;72.96;99326.85;78257;1301;3051337;-66
2023/10/19 03:19:26;;;;;;;10.70;5.50;;;;;;;5.82;74.57;99319.66;79498;1296;3012967;-68
2023/10/19 03:21:55;;;;;;;13.30;6.30;;;;;;;5.84;74.74;99320.97;78876;1295;3011627;-67
2023/10/19 03:27:23;;;;;;;10.60;4.60;;;;;;;5.77;75.92;99321.77;77982;1299;3053112;-63
2023/10/19 03:29:55;;;;;;;;;;;;;;;6.40;73.82;99317.60;78265;1301;3051811;-68
2023/10/19 03:32:26;;;;;;;12.50;5.70;;;;;;;6.47;73.40;99317.86;79305;1295;3011739;-64
2023/10/19 03:34:59;;;;;;;10.50;5.80;;;;;;;6.40;73.60;99310.32;78310;1301;3052234;-65
2023/10/19 03:37:29;;;;;;;8.10;5.50;;;;;;;6.26;73.88;99314.61;79313;1301;3011718;-68
2023/10/19 03:39:57;;;;;;;13.70;6.20;;;;;;;6.06;74.24;99314.29;78266;1295;3050429;-66
2023/10/19 03:42:31;;;;;;;13.50;6.20;;;;;;;5.67;76.35;99312.12;79258;1295;3013236;-65
2023/10/19 03:45:02;;;;;;;;;;;;;;;5.63;76.64;99311.79;78017;1301;3052975;-66
2023/10/19 03:47:34;;;;;;;10.80;6.00;;;;;;;5.58;76.58;99306.59;79577;1300;3011889;-66
2023/10/19 03:50:07;;;;;;;7.50;4.30;;;;;;;5.44;77.16;99308.42;78088;1301;3053857;-66
2023/10/19 03:52:40;;;;;;;9.50;6.00;;;;;;;5.38;77.64;99305.87;79412;1300;3012988;-68
2023/10/19 03:55:12;;;;;;;7.40;5.20;;;;;;;5.30;78.58;99305.30;78347;1301;3069910;-66
2023/10/19 03:57:46;;;;;;;10.20;5.20;;;;;;;5.97;77.32;99300.42;79302;1301;3011924;-65
2023/10/19 04:00:16;;;;;;;9.80;4.50;;;;;;;6.46;75.00;99303.09;78057;1301;3056659;-65
2023/10/19 04:02:43;;;;;;;9.30;5.80;;;;;;;6.32;74.53;99303.89;79547;1300;3011757;-66
2023/10/19 04:05:14;;;;;;;11.60;6.10;;;;;;;6.24;74.58;99309.67;79473;1296;3011492;-64
2023/10/19 04:07:42;;;;;;;11.60;6.20;;;;;;;6.02;74.98;99312.73;78190;1302;3052697;-65
2023/10/19 04:10:09;;;;;;;13.80;6.20;;;;;;;5.86;75.42;99308.19;79495;1301;3012879;-64
2023/10/19 04:12:43;;;;;;;14.00;5.70;;;;;;;5.54;76.91;99306.95;79365;1295;3013227;-69
2023/10/19 04:17:42;;;;;;;13.50;6.40;;;;;;;5.25;78.31;99309.36;79430;1296;3011654;-68
2023/10/19 04:22:49;;;;;;;11.50;3.70;;;;;;;6.02;77.27;99316.02;78974;1296;3011953;-64
2023/10/19 04:25:18;;;;;;;10.10;5.40;;;;;;;6.45;75.00;99323.50;79554;1295;3011741;-69
2023/10/19 04:27:47;;;;;;;8.10;5.30;;;;;;;6.26;74.98;99321.23;78233;1302;3052800;-69
2023/10/19 04:30:17;;;;;;;10.70;5.70;;;;;;;6.12;75.29;99324.13;79494;1298;3019070;-68
2023/10/19 04:32:46;;;;;;;10.20;5.20;;;;;;;5.83;75.89;99332.98;78125;1296;3051789;-66
2023/10/19 04:35:21;;;;;;;8.80;5.30;;;;;;;5.74;76.23;99339.30;79511;1295;3013443;-67
2023/10/19 04:37:51;;;;;;;14.50;6.80;;;;;;;5.55;76.94;99337.84;78028;1301;3054773;-67
2023/10/19 04:40:19;;;;;;;14.60;6.60;;;;;;;5.37;77.82;99336.82;79537;1295;3011603;-66
2023/10/19 04:42:48;;;;;;;11.30;5.70;;;;;;;5.28;78.16;99338.09;79097;1295;3013957;-68
2023/10/19 04:45:14;;;;;;;9.10;5.40;;;;;;;5.24;78.61;99338.58;79580;1296;3013654;-64
2023/10/19 04:47:41;;;;;;;17.40;6.30;;;;;;;5.94;77.39;99340.52;79284;1300;3011932;-66
2023/10/19 04:50:12;;;;;;;11.10;6.00;;;;;;;6.10;75.96;99343.00;78059;1295;3028008;-62
2023/10/19 04:52:39;;;;;;;10.90;6.40;;;;;;;5.99;76.00;99347.79;79347;1300;3013202;-65
2023/10/19 04:55:08;;;;;;;14.20;7.20;;;;;;;5.84;76.29;99344.76;78905;1301;3013585;-66
2023/10/19 04:57:34;;;;;;;16.40;8.30;;;;;;;5.65;77.05;99350.44;79398;1300;3018849;-70
2023/10/19 05:00:01;;;;;;;17.10;9.00;;;;;;;5.38;78.17;99353.13;79337;1301;3011671;-72
2023/10/19 05:02:30;;;;;;;15.00;8.70;;;;;;;5.35;78.46;99356.02;78117;1301;3028237;-67
2023/10/19 05:04:56;;;;;;;16.60;9.50;;;;;;;5.25;78.84;99359.73;79523;1295;3013589;-69
2023/10/19 05:07:22;;;;;;;14.50;8.30;;;;;;;5.20;79.30;99358.73;79435;1296;3011761;-63
2023/10/19 05:09:50;;;;;;;12.70;5.40;;;;;;;5.23;79.26;99361.55;78052;1295;3029082;-68
2023/10/19 05:12:18;;;;;;;12.90;6.20;;;;;;;5.62;78.70;99362.03;79319;1301;3018412;-66
2023/10/19 05:14:45;;;;;;;8.60;5.90;;;;;;;5.97;77.24;99368.73;79458;1300;3011604;-70
2023/10/19 05:17:13;;;;;;;11.00;5.70;;;;;;;6.12;76.39;99371.08;78351;1298;3067799;-65
2023/10/19 05:19:40;;;;;;;11.30;6.20;;;;;;;6.03;76.37;99367.11;79659;1295;3012781;-69
2023/10/19 05:22:08;;;;;;;14.30;7.20;;;;;;;5.70;77.69;99371.78;79617;1295;3011642;-68
2023/10/19 05:24:36;;;;;;;11.80;6.90;;;;;;;5.95;76.21;99371.77;78333;1295;3053558;-68
2023/10/19 05:27:03;;;;;;;14.50;7.30;;;;;;;5.68;77.27;99366.98;79552;1295;3019012;-68
2023/10/19 05:29:33;;;;;;;15.40;7.50;;;;;;;5.52;78.56;99370.64;79622;1298;3011576;-69
2023/10/19 05:32:02;;;;;;;14.10;7.40;;;;;;;5.45;79.07;99372.10;78218;1294;3069006;-68
2023/10/19 05:34:29;;;;;;;14.80;6.30;;;;;;;5.40;79.47;99372.66;79777;1295;3011812;-64
2023/10/19 05:36:58;;;;;;;9.60;6.20;;;;;;;6.18;77.64;99371.64;79702;1294;3011772;-65
2023/10/19 05:39:27;;;;;;;12.70;7.00;;;;;;;6.55;75.80;99370.73;78442;1295;3053249;-64
2023/10/19 05:41:55;;;;;;;13.70;7.20;;;;;;;6.92;74.49;99376.20;79732;1298;3013096;-69
2023/10/19 05:44:24;;;;;;;11.60;7.00;;;;;;;6.68;74.26;99377.60;79571;1298;3011731;-68
2023/10/19 05:46:54;;;;;;;15.00;7.40;;;;;;;6.47;74.83;99385.33;78337;1295;3068863;-66
2023/10/19 05:49:21;;;;;;;14.60;7.80;;;;;;;6.31;75.50;99384.34;79707;1295;3013269;-65
2023/10/19 05:51:48;;;;;;;13.80;7.20;;;;;;;6.18;76.06;99381.05;79595;1295;3011624;-68
2023/10/19 05:54:16;;;;;;;19.20;8.20;;;;;;;6.09;76.51;99381.98;78359;1300;3051829;-67
2023/10/19 05:56:43;;;;;;;11.10;7.40;;;;;;;6.08;76.81;99380.46;79494;1300;3014629;-66
2023/10/19 05:59:10;;;;;;;14.00;8.10;;;;;;;6.01;77.47;99382.50;79488;1301;3011656;-63
2023/10/19 06:01:38;;;;;;;10.50;6.10;;;;;;;6.07;77.70;99379.48;78211;1301;3069268;-67
2023/10/19 06:04:05;;;;;;;13.70;7.30;;;;;;;6.98;76.18;99388.23;79678;1298;3013292;-66
2023/10/19 06:06:32;;;;;;;14.30;7.10;;;;;;;7.42;73.39;99379.02;79720;1298;3011558;-64
2023/10/19 06:09:00;;;;;;;15.60;8.20;;;;;;;7.43;72.61;99384.00;78398;1295;3027031;-70
2023/10/19 06:11:32;;;;;;;10.80;7.10;;;;;;;7.43;72.33;99393.60;79764;1298;3012629;-69
2023/10/19 06:13:59;;;;;;;11.80;6.90;;;;;;;7.17;72.99;99390.67;78328;1298;3051789;-68
2023/10/19 06:16:27;;;;;;;16.40;7.60;;;;;;;7.05;73.95;99391.73;79666;1298;3013737;-66
2023/10/19 06:18:54;;;;;;;18.30;9.40;;;;;;;7.02;73.83;99394.48;79640;1294;3011923;-70
2023/10/19 06:21:23;;;;;;;17.30;7.90;;;;;;;6.97;74.15;99394.72;78559;1298;3047742;-70
2023/10/19 06:23:50;;;;;;;15.00;9.30;;;;;;;6.92;74.54;99398.30;79598;1298;3012615;-69
2023/10/19 06:26:17;;;;;;;16.50;8.90;;;;;;;6.94;74.63;99399.92;79653;1298;3011526;-67
2023/10/19 06:28:45;;;;;;;16.00;9.60;;;;;;;7.12;73.53;99398.22;78618;1295;3052408;-69
2023/10/19 06:31:12;;;;;;;16.60;9.60;;;;;;;6.96;74.53;99402.25;79667;1295;3013544;-66
2023/10/19 06:33:41;;;;;;;18.50;9.50;;;;;;;7.03;73.84;99406.65;79610;1298;3013075;-67
2023/10/19 06:36:09;;;;;;;12.40;7.50;;;;;;;7.19;73.66;99409.71;78251;1296;3049452;-72
2023/10/19 06:38:36;;;;;;;20.20;8.40;;;;;;;7.65;72.29;99401.77;79458;1298;3018598;-66
2023/10/19 06:41:13;;;;;;;15.70;8.50;;;;;;;8.09;71.14;99393.25;79726;1295;3013708;-67
2023/10/19 06:43:41;;;;;;;15.10;8.30;;;;;;;8.14;70.95;99392.69;78642;1295;3051978;-68
2023/10/19 06:46:11;;;;;;;15.80;8.60;;;;;;;8.13;70.59;99395.34;79637;1298;3013606;-64
2023/10/19 06:48:40;;;;;;;14.30;8.70;;;;;;;8.11;70.60;99393.86;79003;1295;3011970;-66
2023/10/19 06:51:06;;;;;;;19.30;8.60;;;;;;;8.12;70.51;99396.59;79831;1295;3018797;-66
2023/10/19 06:53:33;;;;;;;17.20;8.90;;;;;;;8.04;70.43;99400.50;79476;1298;3011914;-65
2023/10/19 06:56:01;;;;;;;15.80;8.10;;;;;;;7.93;70.82;99399.84;78244;1295;3025962;-65
2023/10/19 06:58:28;;;;;;;13.80;8.80;;;;;;;7.87;71.43;99394.92;79669;1298;3019122;-71
2023/10/19 07:00:59;;;;;;;18.20;8.40;;;;;;;7.92;71.80;99396.59;79710;1298;3011343;-71
2023/10/19 07:03:28;;;;;;;14.40;9.30;;;;;;;7.86;71.67;99398.09;78441;1295;3052325;-69
2023/10/19 07:05:55;;;;;;;12.80;9.40;;;;;;;7.87;71.74;99400.27;79471;1296;3012806;-64
2023/10/19 07:08:21;;;;;;;16.30;9.70;;;;;;;7.85;71.90;99400.91;79400;1296;3012957;-64
2023/10/19 07:10:49;;;;;;;20.90;9.40;;;;;;;7.91;71.54;99400.30;78440;1298;3050279;-66
2023/10/19 07:13:16;;;;;;;16.50;10.10;;;;;;;8.07;70.83;99402.09;79630;1298;3019151;-66
2023/10/19 07:15:46;;;;;;;22.70;10.30;;;;;;;8.18;70.26;99403.27;79523;1298;3011649;-69
2023/10/19 07:18:14;;;;;;;16.40;9.80;;;;;;;8.29;70.13;99405.66;78457;1295;3049898;-66
2023/10/19 07:20:42;;;;;;;16.40;10.30;;;;;;;8.37;69.90;99404.19;79783;1296;3013671;-68
2023/10/19 07:23:18;;;;;;;14.80;9.50;;;;;;;8.43;69.85;99408.27;79945;1295;3011586;-70
2023/10/19 07:25:59;;;;;;;15.80;9.60;;;;;;;8.47;70.00;99407.72;78350;1301;3051408;-75
2023/10/19 07:28:27;;;;;;;18.70;9.30;;;;;;;8.63;69.64;99402.55;78290;1301;3051709;-69
2023/10/19 07:30:54;;;;;;;22.40;9.40;;;;;;;8.65;69.89;99403.09;79978;1296;3019160;-71
2023/10/19 07:33:20;;;;;;;15.40;9.10;;;;;;;8.76;69.76;99399.20;79674;1298;3013280;-70
2023/10/19 07:35:55;;;;;;;14.60;8.10;;;;;;;8.80;69.63;99407.94;78426;1296;3028257;-66
2023/10/19 07:38:25;;;;;;;13.10;8.40;;;;;;;8.85;68.96;99407.81;79123;1298;3011641;-65
2023/10/19 07:40:52;;;;;;;15.10;8.00;;;;;;;8.90;68.21;99406.66;79734;1298;3011686;-66
2023/10/19 07:43:20;;;;;;;15.30;8.40;;;;;;;8.93;67.87;99403.89;79487;1296;3011632;-66
2023/10/19 07:45:49;;;;;;;14.00;8.50;;;;;;;8.97;67.60;99408.02;78562;1298;3054292;-64
2023/10/19 07:48:16;;;;;;;17.10;8.40;;;;;;;9.00;67.27;99402.25;79636;1298;3014458;-67
2023/10/19 07:50:43;;;;;;;24.90;8.60;;;;;;;9.08;67.43;99407.77;79769;1296;3011474;-65
2023/10/19 07:53:11;;;;;;;17.10;8.80;;;;;;;9.11;66.63;99410.25;78587;1295;3057659;-66
2023/10/19 07:55:38;;;;;;;16.50;8.80;;;;;;;9.28;67.04;99408.57;79613;1301;3011976;-64
2023/10/19 07:58:06;;;;;;;16.20;7.50;;;;;;;9.42;66.33;99410.80;79505;1295;3012760;-66
2023/10/19 08:00:34;;;;;;;14.30;7.80;;;;;;;9.50;65.59;99409.29;78449;1298;3051264;-64
2023/10/19 08:03:01;;;;;;;13.10;7.40;;;;;;;9.55;65.51;99408.13;79970;1295;3013600;-70
2023/10/19 08:05:28;;;;;;;20.30;7.40;;;;;;;9.72;65.53;99402.23;79606;1295;3013006;-69
2023/10/19 08:07:58;;;;;;;11.60;7.10;;;;;;;9.94;64.97;99405.15;78268;1298;3027004;-67
2023/10/19 08:10:28;;;;;;;15.60;6.70;;;;;;;9.95;64.10;99409.29;79334;1301;3013147;-68
2023/10/19 08:12:56;;;;;;;11.80;7.00;;;;;;;9.95;64.16;99408.98;78716;1294;3051480;-66
2023/10/19 08:15:22;;;;;;;14.10;6.30;;;;;;;9.93;64.42;99408.58;79527;1298;3018987;-67
2023/10/19 08:17:50;;;;;;;10.40;6.70;;;;;;;10.04;64.25;99411.38;79618;1301;3011628;-67
2023/10/19 08:20:24;;;;;;;8.00;5.70;;;;;;;10.20;62.68;99410.98;78285;1298;3070662;-66
2023/10/19 08:22:51;;;;;;;9.40;5.60;;;;;;;10.25;62.91;99408.77;79413;1298;3011918;-68
2023/10/19 08:25:19;;;;;;;10.80;5.70;;;;;;;10.31;63.17;99416.45;78181;1299;3055773;-68
2023/10/19 08:27:47;;;;;;;12.20;5.60;;;;;;;10.48;62.76;99409.86;79467;1298;3013167;-66
2023/10/19 08:30:14;;;;;;;12.40;6.20;;;;;;;10.54;62.78;99409.83;79771;1298;3013117;-66
2023/10/19 08:32:42;;;;;;;11.50;6.20;;;;;;;10.57;62.53;99410.35;78315;1298;3052024;-65
2023/10/19 08:35:11;;;;;;;10.90;6.10;;;;;;;10.78;61.61;99405.58;79772;1298;3013151;-69
2023/10/19 08:37:39;;;;;;;9.20;4.90;;;;;;;10.98;60.63;99407.81;79535;1296;3011723;-65
2023/10/19 08:40:07;;;;;;;14.10;6.10;;;;;;;10.88;60.13;99407.39;78435;1295;3057379;-64
2023/10/19 08:42:34;;;;;;;6.70;5.30;;;;;;;10.89;59.54;99408.26;79552;1296;3013169;-69
2023/10/19 08:45:02;;;;;;;12.10;5.90;;;;;;;10.86;58.84;99411.05;79565;1298;3011723;-65
2023/10/19 08:47:31;;;;;;;7.80;5.40;;;;;;;10.93;59.11;99409.70;78349;1299;3052169;-70
2023/10/19 08:49:59;;;;;;;9.20;5.30;;;;;;;10.95;59.14;99406.98;79484;1299;3013468;-67
2023/10/19 08:52:26;;;;;;;16.40;6.60;;;;;;;10.97;59.13;99404.91;79409;1295;3011672;-65
2023/10/19 08:54:54;;;;;;;8.20;5.80;;;;;;;10.88;58.29;99400.55;78575;1308;3056793;-67
2023/10/19 08:57:20;;;;;;;9.60;4.70;;;;;;;10.85;58.85;99395.33;79688;1298;3013682;-67
2023/10/19 08:59:47;;;;;;;8.60;5.30;;;;;;;11.02;58.92;99396.92;79674;1298;3013114;-69
2023/10/19 09:02:16;;;;;;;8.90;4.70;;;;;;;11.32;58.37;99396.75;78515;1298;3026577;-66
2023/10/19 09:04:46;;;;;;;12.00;5.00;;;;;;;11.43;57.37;99393.56;79757;1301;3011674;-68
2023/10/19 09:07:16;;;;;;;10.90;5.10;;;;;;;11.54;57.68;99389.85;78222;1300;3068542;-68
2023/10/19 09:09:42;;;;;;;11.10;4.90;;;;;;;11.60;57.43;99394.70;79736;1298;3013019;-67
2023/10/19 09:12:09;;;;;;;12.00;5.20;;;;;;;11.70;57.06;99391.56;79536;1295;3013152;-66
2023/10/19 09:14:41;;;;;;;8.60;5.50;;;;;;;11.76;56.81;99392.44;78232;1296;3053406;-67
2023/10/19 09:17:08;;;;;;;9.70;5.00;;;;;;;11.91;56.66;99388.48;79591;1298;3013413;-66
2023/10/19 09:19:48;;;;;;;13.70;5.10;;;;;;;12.11;56.50;99378.88;78282;1298;3026775;-69
2023/10/19 09:22:18;;;;;;;8.90;5.00;;;;;;;12.22;55.85;99376.19;78109;1298;3052568;-68
2023/10/19 09:24:49;;;;;;;14.60;5.10;;;;;;;12.28;55.00;99375.27;79495;1298;3013125;-67
2023/10/19 09:27:17;;;;;;;8.90;5.50;;;;;;;12.25;54.68;99370.73;78115;1296;3050950;-66
2023/10/19 09:29:45;;;;;;;10.60;5.20;;;;;;;12.31;54.19;99371.89;79492;1296;3013024;-67
2023/10/19 09:32:13;;;;;;;11.30;5.40;;;;;;;12.50;54.18;99368.83;79506;1298;3011763;-65
2023/10/19 09:34:43;;;;;;;7.70;4.70;;;;;;;12.59;53.21;99364.91;78423;1309;3051112;-69
2023/10/19 09:37:11;;;;;;;12.70;5.90;;;;;;;12.70;52.76;99366.41;79746;1299;3011689;-65
2023/10/19 09:39:43;;;;;;;9.00;4.90;;;;;;;12.84;52.70;99364.83;79214;1295;3011740;-68
2023/10/19 09:42:16;;;;;;;8.90;4.60;;;;;;;12.86;50.87;99352.20;79412;1299;3011992;-71
2023/10/19 09:44:45;;;;;;;9.50;4.50;;;;;;;12.84;50.65;99352.02;78332;1295;3050966;-67
2023/10/19 09:47:35;;;;;;;14.20;4.80;;;;;;;12.84;50.61;99349.38;79578;1295;3011719;-66
2023/10/19 09:50:05;;;;;;;6.50;4.30;;;;;;;12.92;49.99;99350.95;78606;1298;3050263;-68
2023/10/19 09:52:37;;;;;;;8.80;4.20;;;;;;;12.97;49.47;99339.84;79994;1298;3013610;-68
2023/10/19 09:55:14;;;;;;;6.80;4.00;;;;;;;13.11;50.31;99335.83;78438;1302;3048657;-71
2023/10/19 09:58:03;;;;;;;6.30;4.00;;;;;;;13.09;49.72;99332.45;78503;1301;3052008;-68
2023/10/19 10:00:31;;;;;;;6.50;3.50;;;;;;;12.95;50.35;99336.96;78288;1302;3052368;-65
2023/10/19 10:02:58;;;;;;;5.40;3.10;;;;;;;12.93;49.68;99339.05;79654;1295;3013168;-66
2023/10/19 10:05:44;;;;;;;8.00;3.00;;;;;;;13.10;50.02;99328.33;79657;1302;3013173;-64
2023/10/19 10:08:19;;;;;;;8.10;3.20;;;;;;;12.94;48.96;99328.42;78483;1304;3048736;-66
2023/10/19 10:10:49;;;;;;;7.70;3.20;;;;;;;12.96;49.75;99324.27;79166;1301;3011596;-65
2023/10/19 10:13:31;;;;;;;6.90;3.30;;;;;;;13.08;49.50;99324.30;79596;1301;3013676;-68
2023/10/19 10:16:03;;;;;;;7.40;3.30;;;;;;;13.10;49.88;99323.80;78369;1295;3051816;-68
2023/10/19 10:18:31;;;;;;;12.20;3.40;;;;;;;13.35;49.94;99319.13;79486;1301;3013565;-67
2023/10/19 10:21:11;;;;;;;8.10;3.40;;;;;;;13.41;49.93;99312.58;78289;1309;3068990;-65
2023/10/19 10:23:48;;;;;;;5.30;2.90;;;;;;;13.27;50.22;99311.42;78619;1302;3052613;-65
2023/10/19 10:26:17;;;;;;;6.50;2.90;;;;;;;13.43;49.95;99302.77;78320;1298;3056423;-69
2023/10/19 10:28:49;;;;;;;5.40;3.30;;;;;;;13.71;49.93;99311.36;79954;1295;3013184;-65
2023/10/19 10:31:21;;;;;;;15.10;3.00;;;;;;;13.85;49.69;99309.77;78453;1296;3052402;-68
2023/10/19 10:33:54;;;;;;;6.50;3.10;;;;;;;13.78;49.86;99312.99;79413;1296;3011749;-65
2023/10/19 10:36:22;;;;;;;6.20;2.50;;;;;;;13.80;50.26;99309.48;78176;1299;3050878;-64
2023/10/19 10:38:49;;;;;;;11.80;3.30;;;;;;;13.81;50.75;99303.89;79603;1298;3013656;-66
2023/10/19 10:41:20;;;;;;;10.40;3.20;;;;;;;13.77;51.18;99299.27;79541;1298;3011591;-67
2023/10/19 10:43:53;;;;;;;7.00;2.90;;;;;;;13.98;51.63;99287.28;78455;1295;3055827;-64
2023/10/19 10:46:21;;;;;;;8.80;3.40;;;;;;;14.03;52.09;99285.17;79581;1296;3012978;-67
2023/10/19 10:48:49;;;;;;;10.40;3.40;;;;;;;14.12;52.02;99290.45;78337;1301;3052652;-66
2023/10/19 10:51:20;;;;;;;7.40;3.00;;;;;;;14.19;52.17;99290.95;79550;1301;3013451;-69
2023/10/19 10:53:51;;;;;;;5.90;3.10;;;;;;;14.18;52.70;99285.90;78585;1296;3051837;-70
2023/10/19 10:56:20;;;;;;;7.80;3.40;;;;;;;14.41;53.20;99277.44;79627;1296;3011576;-66
2023/10/19 10:58:47;;;;;;;6.00;3.30;;;;;;;14.53;53.11;99278.98;78376;1294;3051241;-65
2023/10/19 11:01:14;;;;;;;6.10;3.10;;;;;;;14.61;53.18;99280.64;79507;1298;3019034;-63
2023/10/19 11:03:42;;;;;;;8.30;2.80;;;;;;;14.48;53.39;99281.13;79418;1296;3011554;-66
2023/10/19 11:06:10;;;;;;;7.40;2.90;;;;;;;14.44;54.03;99274.50;78423;1295;3050431;-67
2023/10/19 11:08:38;;;;;;;7.40;2.90;;;;;;;14.49;53.55;99273.42;79678;1298;3012970;-66
2023/10/19 11:11:11;;;;;;;8.70;3.20;;;;;;;14.59;54.13;99274.77;79338;1298;3011719;-69
2023/10/19 11:13:39;;;;;;;12.70;3.50;;;;;;;14.34;53.89;99269.00;78428;1295;3051183;-66
2023/10/19 11:16:07;;;;;;;12.10;3.30;;;;;;;14.57;53.88;99270.69;79318;1295;3012799;-70
2023/10/19 11:18:49;;;;;;;7.50;3.00;;;;;;;14.77;53.87;99261.92;79503;1296;3011393;-66
2023/10/19 11:21:18;;;;;;;7.70;2.80;;;;;;;14.77;54.05;99271.58;78347;1298;3049223;-66
2023/10/19 11:23:46;;;;;;;8.40;3.20;;;;;;;14.64;54.13;99269.81;79666;1301;3012417;-71
2023/10/19 11:26:19;;;;;;;5.20;2.80;;;;;;;14.43;54.73;99264.02;79639;1298;3013175;-66
2023/10/19 11:28:54;;;;;;;5.60;3.20;;;;;;;14.40;55.42;99269.25;78210;1301;3050945;-71
2023/10/19 11:31:23;;;;;;;6.60;3.20;;;;;;;14.27;55.76;99261.98;79065;1295;3013643;-63
2023/10/19 11:33:51;;;;;;;7.00;3.20;;;;;;;14.32;56.18;99258.58;79575;1298;3013085;-69
2023/10/19 11:36:18;;;;;;;10.80;3.00;;;;;;;14.41;56.15;99258.37;79554;1294;3011460;-66
2023/10/19 11:38:47;;;;;;;11.80;3.00;;;;;;;14.46;56.21;99257.46;78228;1298;3051782;-70
2023/10/19 11:41:14;;;;;;;9.50;3.80;;;;;;;14.53;55.74;99265.36;79444;1298;3013937;-68
2023/10/19 11:43:42;;;;;;;10.70;3.40;;;;;;;14.41;56.02;99258.37;79322;1298;3012706;-68